Time;durP1;ratioP1;P1;durP2;ratioP2;P2;SDS_P1;SDS_P2;PMS_P1;PMS_P2;Temp;Humidity;BMP_temperature;BMP_pressure;BME280_temperature;BME280_humidity;BME280_pressure;Samples;Min_cycle;Max_cycle;Signal;HPM_P1;HPM_P2
2023/08/12 00:01:29;;;;;;;51.90;3.77;;;;;;;23.47;58.34;99846.88;7309757;19;129007;-40
2023/08/12 00:03:55;;;;;;;47.58;3.63;;;;;;;23.50;58.13;99849.25;7309119;19;131779;-40
2023/08/12 00:06:20;;;;;;;38.33;2.90;;;;;;;23.49;58.44;99855.44;7307262;19;129311;-42
2023/08/12 00:08:46;;;;;;;33.53;2.97;;;;;;;23.49;58.38;99847.56;7308155;19;129738;-38
2023/08/12 00:11:11;;;;;;;33.27;2.70;;;;;;;23.50;57.79;99862.38;7310205;19;129078;-44
2023/08/12 00:13:36;;;;;;;42.95;3.38;;;;;;;23.51;58.27;99860.53;7310710;19;129187;-40
2023/08/12 00:16:02;;;;;;;16.43;1.80;;;;;;;23.49;57.80;99852.81;7307974;19;130039;-43
2023/08/12 00:18:27;;;;;;;71.50;6.03;;;;;;;23.50;57.75;99851.88;7300789;19;129420;-41
2023/08/12 00:20:53;;;;;;;46.70;3.63;;;;;;;23.51;58.23;99852.69;7305191;19;130076;-42
2023/08/12 00:23:18;;;;;;;46.27;3.67;;;;;;;23.40;57.81;99840.59;7309829;19;129962;-40
2023/08/12 00:25:44;;;;;;;9.23;1.33;;;;;;;23.49;58.14;99850.19;7307797;19;129381;-42
2023/08/12 00:28:10;;;;;;;31.50;2.67;;;;;;;23.49;58.30;99850.19;7307067;19;129554;-40
2023/08/12 00:30:35;;;;;;;42.67;3.43;;;;;;;23.49;57.88;99850.19;7308182;19;129471;-34
2023/08/12 00:33:00;;;;;;;26.03;2.27;;;;;;;23.49;57.86;99844.94;7310395;19;129042;-38
2023/08/12 00:35:26;;;;;;;30.07;2.67;;;;;;;23.50;58.57;99843.16;7309496;19;129797;-41
2023/08/12 00:37:51;;;;;;;28.97;2.70;;;;;;;23.49;58.47;99844.94;7306587;19;129623;-44
2023/08/12 00:40:16;;;;;;;38.78;2.97;;;;;;;23.47;58.20;99839.00;7309649;19;129885;-38
2023/08/12 00:42:42;;;;;;;31.80;2.70;;;;;;;23.50;58.53;99841.38;7305872;19;129553;-41
2023/08/12 00:45:13;;;;;;;22.37;2.10;;;;;;;23.48;58.49;99838.06;7307770;19;129454;-38
2023/08/12 00:47:38;;;;;;;55.80;4.20;;;;;;;23.52;57.91;99839.41;7305706;19;130102;-42
2023/08/12 00:50:06;;;;;;;38.33;3.07;;;;;;;23.51;57.82;99831.69;7308964;19;129132;-39
2023/08/12 00:52:31;;;;;;;36.25;3.33;;;;;;;23.49;57.91;99837.09;7309932;19;129702;-41
2023/08/12 00:54:57;;;;;;;23.33;2.30;;;;;;;23.44;58.04;99822.72;7308373;19;129256;-38
2023/08/12 00:57:22;;;;;;;66.90;4.85;;;;;;;23.51;58.20;99836.94;7305205;19;129196;-41
2023/08/12 00:59:49;;;;;;;38.70;3.10;;;;;;;23.50;58.04;99828.25;7310022;19;130788;-40
2023/08/12 01:02:14;;;;;;;;;;;;;;;23.62;58.87;99829.69;7310559;19;128942;-41
2023/08/12 01:04:40;;;;;;;52.20;4.33;;;;;;;23.52;57.86;99833.34;7307681;19;129280;-43
2023/08/12 01:07:05;;;;;;;32.67;3.03;;;;;;;23.50;58.22;99836.13;7308073;19;130418;-41
2023/08/12 01:09:31;;;;;;;35.93;3.33;;;;;;;23.53;58.39;99833.22;7308455;19;129301;-42
2023/08/12 01:12:28;;;;;;;56.03;4.80;;;;;;;23.57;58.47;99831.91;7307067;19;129457;-39
2023/08/12 01:15:16;;;;;;;29.30;2.73;;;;;;;23.49;58.49;99813.47;7304993;19;129765;-39
2023/08/12 01:17:43;;;;;;;39.20;3.05;;;;;;;23.49;58.39;99825.75;7307673;19;129299;-39
2023/08/12 01:20:14;;;;;;;24.80;2.35;;;;;;;23.53;58.32;99829.75;7307721;19;129503;-43
2023/08/12 01:22:43;;;;;;;44.10;3.42;;;;;;;23.51;58.61;99827.25;7309119;19;129460;-42
2023/08/12 01:25:09;;;;;;;42.65;3.15;;;;;;;23.51;58.31;99829.06;7304961;19;129625;-43
2023/08/12 01:27:36;;;;;;;36.57;3.00;;;;;;;23.50;58.20;99828.25;7303317;19;130946;-44
2023/08/12 01:30:05;;;;;;;27.80;2.53;;;;;;;23.53;58.64;99829.75;7315545;19;129322;-39
2023/08/12 01:32:37;;;;;;;22.48;2.38;;;;;;;23.55;58.51;99817.31;7315197;19;128894;-41
2023/08/12 01:35:15;;;;;;;36.83;3.10;;;;;;;23.56;58.50;99829.44;7314305;19;129300;-42
2023/08/12 01:37:42;;;;;;;76.32;5.32;;;;;;;23.52;58.56;99823.66;7311798;19;131968;-45
2023/08/12 01:40:10;;;;;;;41.78;3.42;;;;;;;23.51;58.33;99822.03;7314986;19;129344;-42
2023/08/12 01:42:38;;;;;;;34.88;3.15;;;;;;;23.42;58.34;99812.38;7314487;19;130235;-42
2023/08/12 01:45:04;;;;;;;34.63;3.10;;;;;;;23.47;58.40;99807.53;7313747;19;129077;-43
2023/08/12 01:47:29;;;;;;;53.10;3.97;;;;;;;23.55;58.04;99812.88;7312564;19;130128;-40
2023/08/12 01:49:55;;;;;;;37.17;2.90;;;;;;;23.56;58.19;99809.28;7315182;19;128927;-41
2023/08/12 01:52:21;;;;;;;28.00;2.70;;;;;;;23.56;57.85;99804.03;7315188;19;129229;-41
2023/08/12 01:54:46;;;;;;;24.30;2.30;;;;;;;23.58;57.98;99801.25;7307429;19;130911;-38
2023/08/12 01:57:12;;;;;;;35.20;2.93;;;;;;;23.57;58.79;99805.69;7314725;19;129207;-38
2023/08/12 01:59:38;;;;;;;41.17;3.45;;;;;;;23.56;58.32;99796.16;7314499;19;129440;-41
2023/08/12 02:02:04;;;;;;;28.17;2.65;;;;;;;23.57;57.75;99795.19;7314817;19;129813;-42
2023/08/12 02:04:29;;;;;;;91.90;7.00;;;;;;;23.48;58.24;99780.34;7311546;19;130394;-39
2023/08/12 02:06:55;;;;;;;51.50;3.70;;;;;;;23.58;58.16;99796.84;7312113;19;129512;-38
2023/08/12 02:09:21;;;;;;;30.70;2.97;;;;;;;23.57;58.67;99792.56;7314479;19;129307;-41
2023/08/12 02:11:47;;;;;;;24.25;2.53;;;;;;;23.58;58.24;99782.88;7312798;19;129701;-41
2023/08/12 02:14:12;;;;;;;17.83;2.30;;;;;;;23.55;58.01;99783.19;7314133;19;132349;-38
2023/08/12 02:16:37;;;;;;;58.27;4.27;;;;;;;23.55;57.93;99786.63;7310993;19;129729;-37
2023/08/12 02:19:03;;;;;;;28.50;2.53;;;;;;;23.56;58.62;99784.81;7314193;19;129245;-43
2023/08/12 02:21:28;;;;;;;37.80;3.13;;;;;;;23.57;57.65;99784.69;7313566;19;129514;-42
2023/08/12 02:23:54;;;;;;;45.00;3.63;;;;;;;23.58;58.02;99775.00;7311819;19;129479;-41
2023/08/12 02:26:20;;;;;;;34.77;2.90;;;;;;;23.58;58.02;99780.25;7311801;19;129784;-38
2023/08/12 02:28:45;;;;;;;39.47;3.67;;;;;;;23.59;57.89;99776.66;7313674;19;129844;-43
2023/08/12 02:31:10;;;;;;;11.80;1.55;;;;;;;23.49;57.94;99753.09;7314546;19;129681;-39
2023/08/12 02:33:36;;;;;;;65.85;4.72;;;;;;;23.63;58.44;99763.09;7313020;19;130610;-45
2023/08/12 02:36:01;;;;;;;24.47;2.37;;;;;;;23.63;57.60;99757.84;7312363;19;129323;-41
2023/08/12 02:38:27;;;;;;;32.50;3.20;;;;;;;23.64;57.71;99758.66;7308853;19;129050;-40
2023/08/12 02:40:52;;;;;;;31.17;2.65;;;;;;;23.58;57.93;99751.41;7309938;19;129156;-40
2023/08/12 02:43:17;;;;;;;39.30;3.30;;;;;;;23.60;58.40;99752.88;7312041;19;130207;-43
2023/08/12 02:45:43;;;;;;;39.40;3.53;;;;;;;23.54;57.76;99757.91;7311279;19;129401;-43
2023/08/12 02:48:12;;;;;;;14.77;2.00;;;;;;;23.56;58.37;99756.78;7308894;19;129353;-42
2023/08/12 02:50:38;;;;;;;79.35;6.22;;;;;;;23.56;58.23;99753.34;7310764;19;128997;-40
2023/08/12 02:53:04;;;;;;;39.58;3.10;;;;;;;23.56;58.18;99746.28;7307516;19;132094;-41
2023/08/12 02:55:31;;;;;;;39.77;3.40;;;;;;;23.56;58.59;99756.78;7311763;19;129144;-42
2023/08/12 02:57:57;;;;;;;18.63;2.28;;;;;;;23.54;58.54;99763.97;7311404;19;130115;-42
2023/08/12 03:00:22;;;;;;;36.97;3.10;;;;;;;23.54;58.36;99745.63;7310108;19;129057;-38
2023/08/12 03:02:48;;;;;;;50.10;4.00;;;;;;;23.58;58.17;99749.59;7312897;19;129637;-40
2023/08/12 03:05:13;;;;;;;22.65;2.17;;;;;;;23.61;58.14;99759.81;7309583;19;131757;-43
2023/08/12 03:07:39;;;;;;;34.22;3.05;;;;;;;23.62;57.82;99750.94;7309601;19;128966;-42
2023/08/12 03:10:05;;;;;;;24.77;2.43;;;;;;;23.61;58.41;99759.81;7310349;19;129432;-43
2023/08/12 03:12:30;;;;;;;42.37;3.63;;;;;;;23.58;58.00;99752.22;7312563;19;129448;-39
2023/08/12 03:14:55;;;;;;;26.83;2.57;;;;;;;23.62;58.19;99750.13;7308759;19;129527;-44
2023/08/12 03:17:21;;;;;;;30.47;2.73;;;;;;;23.62;57.81;99758.00;7310934;19;129058;-42
2023/08/12 03:19:46;;;;;;;12.37;1.73;;;;;;;23.61;58.44;99759.81;7310862;19;129340;-39
2023/08/12 03:22:11;;;;;;;34.40;3.17;;;;;;;23.61;58.05;99753.72;7311762;19;132092;-39
2023/08/12 03:24:37;;;;;;;80.57;6.37;;;;;;;23.54;58.29;99736.91;7310007;19;129266;-40
2023/08/12 03:27:02;;;;;;;22.77;2.28;;;;;;;23.65;58.46;99748.00;7307795;19;130750;-40
2023/08/12 03:29:27;;;;;;;48.77;3.93;;;;;;;23.53;58.49;99733.47;7310523;19;129017;-40
2023/08/12 03:31:53;;;;;;;48.07;3.73;;;;;;;23.62;58.22;99750.94;7311815;19;130006;-37
2023/08/12 03:34:18;;;;;;;44.63;3.57;;;;;;;23.60;58.25;99752.06;7312719;19;129625;-43
2023/08/12 03:36:45;;;;;;;53.08;4.28;;;;;;;23.61;58.56;99754.56;7304967;19;129794;-41
2023/08/12 03:39:11;;;;;;;44.45;3.38;;;;;;;23.61;58.29;99749.31;7309945;19;128964;-43
2023/08/12 03:41:36;;;;;;;31.47;2.73;;;;;;;23.64;58.04;99743.75;7308211;19;129926;-44
2023/08/12 03:44:02;;;;;;;39.58;3.35;;;;;;;23.65;58.04;99750.63;7311316;19;129501;-40
2023/08/12 03:46:27;;;;;;;43.95;3.50;;;;;;;23.65;58.53;99734.09;7309162;19;129044;-44
2023/08/12 03:48:52;;;;;;;41.20;3.30;;;;;;;23.63;58.15;99738.66;7309664;19;129429;-40
2023/08/12 03:51:17;;;;;;;65.43;5.33;;;;;;;23.64;58.32;99737.66;7308856;19;129374;-41
2023/08/12 03:53:43;;;;;;;27.88;2.60;;;;;;;23.62;58.23;99729.94;7311196;19;129300;-42
2023/08/12 03:56:08;;;;;;;46.47;4.07;;;;;;;23.63;58.22;99730.78;7309043;19;128868;-42
2023/08/12 03:58:34;;;;;;;68.90;5.20;;;;;;;23.62;58.21;99740.44;7307927;19;129077;-42
2023/08/12 04:00:59;;;;;;;20.60;2.07;;;;;;;23.64;57.99;99732.41;7310649;19;130168;-42
2023/08/12 04:03:25;;;;;;;32.33;3.00;;;;;;;23.63;58.38;99731.59;7309166;19;129305;-39
2023/08/12 04:05:52;;;;;;;33.07;2.90;;;;;;;23.61;57.99;99730.94;7309141;19;130419;-43
2023/08/12 04:08:21;;;;;;;34.95;2.97;;;;;;;23.59;58.57;99735.50;7307111;19;131652;-41
2023/08/12 04:10:47;;;;;;;30.08;2.63;;;;;;;23.50;58.59;99723.28;7312872;19;129142;-40
2023/08/12 04:13:13;;;;;;;30.37;3.03;;;;;;;23.62;58.08;99737.81;7310286;19;129464;-42
2023/08/12 04:15:39;;;;;;;30.77;2.93;;;;;;;23.63;58.18;99736.03;7310485;19;129510;-38
2023/08/12 04:18:04;;;;;;;34.53;2.77;;;;;;;23.65;58.26;99740.13;7307713;19;129730;-40
2023/08/12 04:20:30;;;;;;;47.10;4.03;;;;;;;23.63;58.25;99736.84;7308689;19;129323;-43
2023/08/12 04:22:55;;;;;;;29.15;2.58;;;;;;;23.63;58.19;99726.38;7308908;19;129484;-42
2023/08/12 04:25:21;;;;;;;38.10;3.23;;;;;;;23.59;58.01;99719.75;7308833;19;129565;-42
2023/08/12 04:27:48;;;;;;;39.10;3.63;;;;;;;23.55;57.97;99723.63;7309311;19;129761;-38
2023/08/12 04:30:13;;;;;;;19.70;2.15;;;;;;;23.64;58.19;99732.41;7302918;19;130858;-43
2023/08/12 04:32:39;;;;;;;27.60;2.67;;;;;;;23.65;58.18;99734.88;7308679;19;130058;-40
2023/08/12 04:35:05;;;;;;;54.03;4.17;;;;;;;23.66;58.12;99727.84;7306861;19;130234;-40
2023/08/12 04:37:32;;;;;;;52.23;4.27;;;;;;;23.65;58.23;99729.63;7307176;19;129360;-40
2023/08/12 04:39:57;;;;;;;;;;;;;;;23.76;58.29;99731.22;7305523;19;130710;-41
2023/08/12 04:42:22;;;;;;;34.83;3.25;;;;;;;23.54;58.30;99715.91;7309817;19;129675;-42
2023/08/12 04:44:48;;;;;;;42.85;3.50;;;;;;;23.66;58.20;99740.97;7306887;19;129007;-45
2023/08/12 04:47:13;;;;;;;45.47;3.47;;;;;;;23.65;58.74;99734.88;7306792;19;129023;-40
2023/08/12 04:49:39;;;;;;;22.60;2.30;;;;;;;23.66;57.83;99728.69;7305953;19;131328;-38
2023/08/12 04:52:05;;;;;;;25.67;2.47;;;;;;;23.65;58.26;99734.88;7304503;19;130653;-43
2023/08/12 04:54:30;;;;;;;109.28;8.13;;;;;;;23.65;58.58;99728.84;7307965;19;129169;-39
2023/08/12 04:56:56;;;;;;;45.73;3.70;;;;;;;23.63;58.61;99721.13;7307348;19;129559;-36
2023/08/12 04:59:22;;;;;;;17.23;2.00;;;;;;;23.64;58.77;99725.38;7308940;19;129613;-43
2023/08/12 05:01:47;;;;;;;26.57;2.57;;;;;;;23.63;58.00;99715.88;7304469;19;130131;-41
2023/08/12 05:04:13;;;;;;;53.17;3.83;;;;;;;23.65;58.40;99718.34;7314129;19;128942;-39
2023/08/12 05:06:38;;;;;;;40.13;3.30;;;;;;;23.64;57.90;99717.50;7315050;19;129370;-41
2023/08/12 05:09:04;;;;;;;62.95;5.10;;;;;;;23.62;57.97;99714.19;7313425;19;130407;-43
2023/08/12 05:11:29;;;;;;;46.17;3.83;;;;;;;23.62;58.34;99718.63;7314799;19;130627;-40
2023/08/12 05:13:54;;;;;;;60.20;4.73;;;;;;;23.61;58.61;99717.81;7314160;19;129819;-38
2023/08/12 05:16:20;;;;;;;36.65;3.30;;;;;;;23.61;58.08;99715.19;7312742;19;129039;-35
2023/08/12 05:18:45;;;;;;;30.30;2.77;;;;;;;23.63;58.30;99715.03;7312476;19;129451;-42
2023/08/12 05:21:10;;;;;;;25.20;2.40;;;;;;;23.59;57.91;99713.66;7316741;19;130413;-42
2023/08/12 05:23:36;;;;;;;86.07;6.57;;;;;;;23.61;58.04;99715.19;7311106;19;130584;-42
2023/08/12 05:26:01;;;;;;;33.33;2.92;;;;;;;23.63;58.14;99718.50;7313487;19;129534;-41
2023/08/12 05:28:26;;;;;;;59.33;4.93;;;;;;;23.63;58.65;99720.28;7312396;19;129025;-38
2023/08/12 05:30:54;;;;;;;55.23;4.07;;;;;;;23.61;58.20;99707.31;7314998;19;129315;-42
2023/08/12 05:33:20;;;;;;;38.10;3.30;;;;;;;23.62;58.62;99714.19;7315588;19;130426;-43
2023/08/12 05:35:47;;;;;;;44.40;3.33;;;;;;;23.51;58.64;99696.06;7307827;19;128964;-37
2023/08/12 05:38:13;;;;;;;40.03;3.42;;;;;;;23.62;58.77;99708.94;7312511;19;130024;-38
2023/08/12 05:40:38;;;;;;;44.53;3.80;;;;;;;23.52;58.32;99692.44;7311548;19;129398;-39
2023/08/12 05:43:04;;;;;;;26.53;2.47;;;;;;;23.61;58.33;99709.94;7315626;19;128981;-39
2023/08/12 05:45:30;;;;;;;58.20;4.47;;;;;;;23.61;58.41;99707.31;7305699;19;130154;-40
2023/08/12 05:47:55;;;;;;;58.10;4.80;;;;;;;23.60;58.11;99707.47;7312503;19;130249;-40
2023/08/12 05:50:21;;;;;;;72.97;5.73;;;;;;;23.61;58.13;99712.56;7312424;19;130468;-39
2023/08/12 05:52:46;;;;;;;33.30;3.17;;;;;;;23.60;58.38;99707.47;7311873;19;129741;-39
2023/08/12 05:55:11;;;;;;;28.13;2.70;;;;;;;23.60;58.23;99710.88;7310903;19;129388;-44
2023/08/12 05:57:37;;;;;;;17.77;2.10;;;;;;;23.59;58.75;99708.41;7312437;19;129109;-44
2023/08/12 06:00:02;;;;;;;40.80;3.13;;;;;;;23.50;58.40;99693.59;7313917;19;131183;-38
2023/08/12 06:02:28;;;;;;;36.13;3.33;;;;;;;23.58;58.45;99707.59;7314180;19;129000;-41
2023/08/12 06:04:53;;;;;;;29.07;2.73;;;;;;;23.58;58.37;99707.59;7311976;19;129434;-40
2023/08/12 06:07:19;;;;;;;58.93;4.97;;;;;;;23.58;58.90;99712.03;7311125;19;130599;-42
2023/08/12 06:09:44;;;;;;;45.50;3.58;;;;;;;23.57;58.79;99711.19;7312424;19;129407;-44
2023/08/12 06:12:09;;;;;;;50.47;4.38;;;;;;;23.54;58.31;99706.25;7313907;19;129422;-37
2023/08/12 06:14:38;;;;;;;109.35;8.98;;;;;;;23.53;58.63;99707.22;7311924;19;130127;-38
2023/08/12 06:17:04;;;;;;;53.30;4.35;;;;;;;23.52;58.68;99702.94;7308830;19;129599;-40
2023/08/12 06:19:29;;;;;;;49.63;4.17;;;;;;;23.53;59.05;99701.16;7314536;19;129657;-44
2023/08/12 06:21:54;;;;;;;31.30;3.00;;;;;;;23.48;58.99;99696.34;7315131;19;128984;-43
2023/08/12 06:24:20;;;;;;;44.17;3.90;;;;;;;23.51;58.30;99696.06;7311018;19;129572;-39
2023/08/12 06:26:45;;;;;;;48.72;4.03;;;;;;;23.51;58.46;99700.47;7310287;19;129340;-41
2023/08/12 06:29:10;;;;;;;33.30;2.97;;;;;;;23.53;58.39;99693.28;7313420;19;129314;-42
2023/08/12 06:31:36;;;;;;;37.70;3.15;;;;;;;23.52;59.12;99691.63;7313873;19;129672;-44
2023/08/12 06:34:01;;;;;;;32.60;3.17;;;;;;;23.52;58.76;99692.44;7314323;19;129174;-40
2023/08/12 06:36:27;;;;;;;53.43;4.23;;;;;;;23.51;58.79;99696.06;7308995;19;130139;-42
2023/08/12 06:38:52;;;;;;;60.15;4.95;;;;;;;23.51;58.45;99696.06;7311546;19;129535;-41
2023/08/12 06:41:18;;;;;;;27.65;2.60;;;;;;;23.54;59.00;99698.38;7313283;19;130825;-40
2023/08/12 06:43:43;;;;;;;24.63;2.50;;;;;;;23.54;58.25;99687.88;7313760;19;129371;-38
2023/08/12 06:46:08;;;;;;;47.10;3.90;;;;;;;23.54;58.33;99695.75;7310406;19;130148;-40
2023/08/12 06:48:34;;;;;;;43.40;3.63;;;;;;;23.56;58.95;99688.56;7306703;19;130791;-41
2023/08/12 06:50:59;;;;;;;55.43;4.47;;;;;;;23.57;58.86;99692.81;7311222;19;130171;-42
2023/08/12 06:53:26;;;;;;;24.27;2.30;;;;;;;23.57;58.63;99690.19;7312315;19;129738;-42
2023/08/12 06:55:51;;;;;;;45.42;3.80;;;;;;;23.58;58.88;99691.88;7312586;19;129078;-39
2023/08/12 06:58:17;;;;;;;43.67;4.13;;;;;;;23.57;58.88;99690.19;7310014;19;129054;-41
2023/08/12 07:00:42;;;;;;;28.30;2.77;;;;;;;23.58;58.57;99686.63;7314252;19;129148;-41
2023/08/12 07:03:08;;;;;;;25.73;2.28;;;;;;;23.57;58.71;99684.94;7313963;19;129063;-37
2023/08/12 07:05:33;;;;;;;45.90;3.80;;;;;;;23.59;58.24;99688.25;7308852;19;129036;-40
2023/08/12 07:07:59;;;;;;;31.03;3.00;;;;;;;23.60;58.91;99681.22;7310777;19;130687;-40
2023/08/12 07:10:24;;;;;;;27.73;2.77;;;;;;;23.62;58.62;99682.69;7312826;19;129452;-43
2023/08/12 07:12:49;;;;;;;70.60;5.90;;;;;;;23.60;59.12;99683.84;7310339;19;130721;-41
2023/08/12 07:15:15;;;;;;;32.40;3.17;;;;;;;23.57;58.85;99677.06;7311572;19;130353;-38
2023/08/12 07:17:40;;;;;;;25.25;2.53;;;;;;;23.63;58.58;99684.38;7310814;19;129272;-38
2023/08/12 07:20:06;;;;;;;11.27;1.60;;;;;;;23.62;58.60;99687.94;7308888;19;129606;-43
2023/08/12 07:22:32;;;;;;;44.97;3.72;;;;;;;23.61;58.93;99691.56;7311437;19;129422;-43
2023/08/12 07:24:59;;;;;;;33.97;3.13;;;;;;;23.62;58.36;99677.44;7311180;19;130353;-43
2023/08/12 07:27:25;;;;;;;72.78;5.93;;;;;;;23.58;58.22;99681.38;7305213;19;130331;-43
2023/08/12 07:29:51;;;;;;;35.73;3.50;;;;;;;23.61;58.31;99683.69;7309524;19;129092;-38
2023/08/12 07:32:16;;;;;;;61.03;4.40;;;;;;;23.61;58.58;99681.06;7311683;19;129562;-40
2023/08/12 07:34:41;;;;;;;27.77;2.90;;;;;;;23.62;58.43;99692.38;7308080;19;129515;-42
2023/08/12 07:37:07;;;;;;;11.03;1.63;;;;;;;23.61;58.56;99681.06;7310573;19;130482;-42
2023/08/12 07:39:32;;;;;;;22.93;2.57;;;;;;;23.64;58.51;99680.75;7306902;19;130669;-39
2023/08/12 07:41:57;;;;;;;43.97;3.57;;;;;;;23.63;58.30;99681.75;7311658;19;129859;-37
2023/08/12 07:44:23;;;;;;;65.30;5.53;;;;;;;23.64;58.25;99675.50;7311304;19;130442;-40
2023/08/12 07:46:49;;;;;;;25.73;2.72;;;;;;;23.63;58.16;99671.25;7309371;19;129475;-43
2023/08/12 07:49:15;;;;;;;25.40;2.30;;;;;;;23.63;58.68;99673.88;7308253;19;130344;-41
2023/08/12 07:51:41;;;;;;;44.72;3.65;;;;;;;23.61;58.48;99675.81;7312631;19;129837;-38
2023/08/12 07:54:06;;;;;;;20.27;2.40;;;;;;;23.59;58.08;99677.75;7311648;19;131222;-40
2023/08/12 07:56:32;;;;;;;32.05;2.88;;;;;;;23.61;58.14;99669.72;7310505;19;129757;-43
2023/08/12 07:58:57;;;;;;;62.67;4.90;;;;;;;23.62;58.29;99672.19;7308933;19;129812;-40
2023/08/12 08:01:22;;;;;;;37.30;3.23;;;;;;;23.61;58.65;99673.19;7310870;19;129522;-40
2023/08/12 08:03:48;;;;;;;36.83;3.40;;;;;;;23.59;58.76;99662.00;7311184;19;129817;-36
2023/08/12 08:06:13;;;;;;;24.67;2.55;;;;;;;23.62;58.87;99677.44;7304068;19;130158;-43
2023/08/12 08:08:38;;;;;;;45.83;3.93;;;;;;;23.66;58.60;99665.69;7307543;19;129217;-39
2023/08/12 08:11:04;;;;;;;68.40;5.47;;;;;;;23.62;58.73;99661.69;7308724;19;129174;-42
2023/08/12 08:13:29;;;;;;;31.90;3.00;;;;;;;23.62;58.21;99656.44;7311258;19;129211;-42
2023/08/12 08:15:55;;;;;;;35.25;3.20;;;;;;;23.62;58.26;99660.91;7307896;19;129604;-41
2023/08/12 08:18:20;;;;;;;42.60;3.53;;;;;;;23.61;58.29;99646.94;7306461;19;129235;-41
2023/08/12 08:20:45;;;;;;;33.87;2.90;;;;;;;23.63;58.29;99646.78;7307543;19;129029;-38
2023/08/12 08:23:11;;;;;;;35.50;3.07;;;;;;;23.59;58.89;99641.00;7310682;19;129630;-40
2023/08/12 08:25:36;;;;;;;21.40;2.30;;;;;;;23.62;58.84;99648.56;7307208;19;131208;-41
2023/08/12 08:28:03;;;;;;;64.83;4.93;;;;;;;23.61;58.76;99646.94;7307965;19;129621;-44
2023/08/12 08:30:29;;;;;;;28.13;2.67;;;;;;;23.60;58.55;99652.34;7305652;19;130754;-42
2023/08/12 08:32:54;;;;;;;28.23;3.00;;;;;;;23.58;58.64;99654.28;7309188;19;129510;-39
2023/08/12 08:35:19;;;;;;;30.97;2.77;;;;;;;23.56;58.67;99651.81;7306136;19;129160;-42
2023/08/12 08:37:45;;;;;;;49.45;4.07;;;;;;;23.56;59.13;99659.69;7307432;19;129424;-40
2023/08/12 08:40:10;;;;;;;24.33;2.40;;;;;;;23.54;58.31;99660.78;7316232;19;129498;-43
2023/08/12 08:42:37;;;;;;;26.67;2.77;;;;;;;23.55;58.72;99659.84;7315980;19;129542;-39
2023/08/12 08:45:07;;;;;;;41.42;3.65;;;;;;;23.48;59.27;99648.28;7313918;19;129406;-40
2023/08/12 08:47:32;;;;;;;41.38;3.58;;;;;;;23.55;58.74;99659.84;7315059;19;129050;-40
2023/08/12 08:49:59;;;;;;;63.97;5.27;;;;;;;23.53;58.95;99646.88;7313491;19;131003;-39
2023/08/12 08:52:24;;;;;;;35.78;3.28;;;;;;;23.55;58.95;99644.91;7316976;19;129189;-39
2023/08/12 08:54:50;;;;;;;32.10;3.27;;;;;;;23.55;58.45;99652.78;7315602;19;130155;-39
2023/08/12 08:57:16;;;;;;;36.23;3.13;;;;;;;23.56;58.37;99658.84;7315568;19;129380;-42
2023/08/12 08:59:42;;;;;;;22.40;2.22;;;;;;;23.54;58.54;99647.66;7314970;19;129015;-39
2023/08/12 09:02:17;;;;;;;25.80;2.57;;;;;;;23.57;59.18;99653.44;7317127;19;129222;-42
2023/08/12 09:04:44;;;;;;;45.55;3.90;;;;;;;23.55;58.76;99650.16;7313515;19;131286;-42
2023/08/12 09:07:11;;;;;;;40.67;3.25;;;;;;;23.54;58.55;99651.13;7315439;19;129190;-43
2023/08/12 09:09:37;;;;;;;31.52;3.13;;;;;;;23.54;58.84;99642.44;7316064;19;129514;-38
2023/08/12 09:12:04;;;;;;;23.00;2.38;;;;;;;23.55;59.13;99646.72;7312637;19;130250;-43
2023/08/12 09:14:29;;;;;;;92.43;7.63;;;;;;;23.57;58.67;99645.56;7315256;19;130089;-42
2023/08/12 09:16:57;;;;;;;50.67;4.00;;;;;;;23.49;58.85;99623.69;7315112;19;129721;-37
2023/08/12 09:19:22;;;;;;;44.75;4.07;;;;;;;23.56;58.68;99641.31;7315127;19;128997;-40
2023/08/12 09:21:54;;;;;;;26.43;2.60;;;;;;;23.57;58.74;99637.69;7316849;19;129541;-40
2023/08/12 09:24:26;;;;;;;32.90;2.95;;;;;;;23.57;59.19;99632.44;7315487;19;130284;-38
2023/08/12 09:26:52;;;;;;;39.50;3.63;;;;;;;23.54;58.78;99626.69;7313602;19;129515;-42
2023/08/12 09:29:17;;;;;;;38.55;3.33;;;;;;;23.54;59.11;99632.75;7314734;19;130165;-41
2023/08/12 09:31:43;;;;;;;34.53;3.17;;;;;;;23.46;58.43;99611.69;7316494;19;130316;-41
2023/08/12 09:34:08;;;;;;;28.27;2.73;;;;;;;23.54;58.77;99627.50;7313433;19;129794;-43
2023/08/12 09:36:34;;;;;;;62.33;5.00;;;;;;;23.56;59.01;99625.56;7310908;19;129082;-43
2023/08/12 09:39:00;;;;;;;50.43;4.03;;;;;;;23.57;58.58;99624.59;7314893;19;129002;-40
2023/08/12 09:41:29;;;;;;;36.57;3.60;;;;;;;23.53;59.27;99612.75;7314435;19;129970;-43
2023/08/12 09:43:55;;;;;;;40.20;3.75;;;;;;;23.56;59.21;99617.69;7314408;19;129717;-40
2023/08/12 09:46:25;;;;;;;46.63;3.88;;;;;;;23.58;58.41;99614.91;7312436;19;129007;-41
2023/08/12 09:48:52;;;;;;;42.55;3.58;;;;;;;23.57;58.34;99614.09;7301820;19;130008;-40
2023/08/12 09:51:17;;;;;;;;;;;;;;;23.69;58.87;99604.16;7316314;19;129410;-41
2023/08/12 09:53:43;;;;;;;28.05;2.72;;;;;;;23.59;58.37;99600.81;7314866;19;130108;-42
2023/08/12 09:56:11;;;;;;;33.53;2.80;;;;;;;23.58;58.88;99607.88;7313928;19;129021;-44
2023/08/12 09:58:37;;;;;;;57.85;4.85;;;;;;;23.56;58.90;99612.44;7310814;19;129315;-41
2023/08/12 10:01:07;;;;;;;31.43;2.93;;;;;;;23.55;58.68;99608.16;7312985;19;130241;-43
2023/08/12 10:03:34;;;;;;;35.22;3.28;;;;;;;23.56;59.07;99607.19;7314442;19;129409;-42
2023/08/12 10:05:59;;;;;;;;;;;;;;;23.69;58.89;99604.16;7312590;19;129533;-42
2023/08/12 10:08:27;;;;;;;38.22;3.20;;;;;;;23.58;58.43;99605.25;7312033;19;129516;-44
2023/08/12 10:10:52;;;;;;;29.90;2.97;;;;;;;23.56;59.15;99598.50;7311331;19;129352;-41
2023/08/12 10:13:19;;;;;;;120.77;9.40;;;;;;;23.58;58.76;99597.38;7309338;19;129725;-41
2023/08/12 10:15:45;;;;;;;59.03;4.88;;;;;;;23.57;58.76;99595.72;7307767;19;129320;-38
2023/08/12 10:18:12;;;;;;;36.33;3.10;;;;;;;23.53;59.20;99594.38;7312233;19;129392;-43
2023/08/12 10:20:37;;;;;;;;;;;;;;;23.66;58.63;99592.19;7312614;19;129733;-40
2023/08/12 10:23:04;;;;;;;41.90;3.87;;;;;;;23.55;59.02;99581.09;7313725;19;130254;-38
2023/08/12 10:25:31;;;;;;;;;;;;;;;23.67;59.17;99590.41;7310350;19;129473;-37
2023/08/12 10:27:57;;;;;;;52.45;4.30;;;;;;;23.57;58.44;99576.53;7312394;19;129606;-40
2023/08/12 10:30:22;;;;;;;37.58;3.22;;;;;;;23.56;58.43;99582.75;7312345;19;132284;-40
2023/08/12 10:32:48;;;;;;;66.18;5.43;;;;;;;23.55;58.62;99581.91;7312631;19;129605;-42
2023/08/12 10:35:13;;;;;;;31.90;2.80;;;;;;;23.57;58.63;99582.59;7311742;19;129504;-39
2023/08/12 10:37:39;;;;;;;40.88;3.50;;;;;;;23.54;58.86;99580.28;7310369;19;130178;-37
2023/08/12 10:40:07;;;;;;;50.47;4.47;;;;;;;23.53;59.23;99578.63;7312028;19;129706;-39
2023/08/12 10:42:48;;;;;;;36.08;3.45;;;;;;;23.57;59.64;99579.16;7312326;19;131031;-42
2023/08/12 10:45:16;;;;;;;32.03;2.88;;;;;;;23.54;58.95;99569.78;7311909;19;128949;-40
2023/08/12 10:47:46;;;;;;;50.03;4.05;;;;;;;23.54;59.21;99572.41;7312875;19;129459;-40
2023/08/12 10:50:22;;;;;;;31.95;3.03;;;;;;;23.57;59.09;99576.53;7313801;19;129904;-39
2023/08/12 10:52:51;;;;;;;35.85;3.08;;;;;;;23.52;59.39;99563.03;7312785;19;130345;-42
2023/08/12 10:55:20;;;;;;;32.20;2.85;;;;;;;23.53;59.18;99562.91;7312140;19;130342;-41
2023/08/12 10:57:46;;;;;;;37.33;3.45;;;;;;;23.54;58.61;99566.31;7310641;19;129050;-41
2023/08/12 11:00:17;;;;;;;39.13;3.17;;;;;;;23.54;59.35;99569.78;7310565;19;129417;-39
2023/08/12 11:02:46;;;;;;;32.22;2.78;;;;;;;23.53;59.08;99562.06;7310299;19;129627;-40
2023/08/12 11:05:12;;;;;;;53.63;4.40;;;;;;;23.54;59.36;99564.53;7308622;19;129230;-37
2023/08/12 11:07:39;;;;;;;;;;;;;;;23.65;59.03;99563.47;7311657;19;129275;-36
2023/08/12 11:10:25;;;;;;;49.80;3.67;;;;;;;23.57;58.63;99558.97;7312170;19;130938;-42
2023/08/12 11:12:51;;;;;;;41.67;3.42;;;;;;;23.48;58.43;99548.56;7313059;19;129913;-36
2023/08/12 11:15:16;;;;;;;28.70;2.60;;;;;;;23.57;58.44;99564.22;7310984;19;129291;-37